createdAt,value
2023-04-15T00:00:59.780Z,6.90
2023-04-15T00:03:30.032Z,6.90
2023-04-15T00:05:58.314Z,6.90
2023-04-15T00:08:25.614Z,6.80
2023-04-15T00:10:52.929Z,6.80
2023-04-15T00:13:22.337Z,6.80
2023-04-15T00:15:49.236Z,6.80
2023-04-15T00:18:18.348Z,6.80
2023-04-15T00:20:45.253Z,6.80
2023-04-15T00:23:12.167Z,6.80
2023-04-15T00:25:39.223Z,6.80
2023-04-15T00:28:06.114Z,6.80
2023-04-15T00:30:33.718Z,6.70
2023-04-15T00:33:03.802Z,6.70
2023-04-15T00:35:32.828Z,6.70
2023-04-15T00:37:59.978Z,6.70
2023-04-15T00:40:29.922Z,6.70
2023-04-15T00:42:59.356Z,6.80
2023-04-15T00:45:26.616Z,6.80
2023-04-15T00:47:55.829Z,6.80
2023-04-15T00:50:25.761Z,6.80
2023-04-15T00:52:52.750Z,6.80
2023-04-15T00:55:21.929Z,6.80
2023-04-15T00:57:51.167Z,6.80
2023-04-15T01:00:22.814Z,6.80
2023-04-15T01:02:50.413Z,6.80
2023-04-15T01:05:19.793Z,6.80
2023-04-15T01:07:47.990Z,6.80
2023-04-15T01:10:14.933Z,6.80
2023-04-15T01:12:43.425Z,6.80
2023-04-15T01:15:12.494Z,6.80
2023-04-15T01:17:42.177Z,6.80
2023-04-15T01:20:12.599Z,6.80
2023-04-15T01:22:44.216Z,6.90
2023-04-15T01:25:17.799Z,6.90
2023-04-15T01:27:47.690Z,6.90
2023-04-15T01:30:15.844Z,6.90
2023-04-15T01:32:45.056Z,6.90
2023-04-15T01:35:14.269Z,6.90
2023-04-15T01:37:41.186Z,6.90
2023-04-15T01:40:10.741Z,6.80
2023-04-15T01:42:38.396Z,6.80
2023-04-15T01:45:06.384Z,6.80
2023-04-15T01:47:33.717Z,6.80
2023-04-15T01:50:00.643Z,6.80
2023-04-15T01:52:28.936Z,6.80
2023-04-15T01:55:01.980Z,6.80
2023-04-15T01:57:33.564Z,6.80
2023-04-15T02:00:03.867Z,6.70
2023-04-15T02:02:43.051Z,6.70
2023-04-15T02:05:12.239Z,6.80
2023-04-15T02:07:44.123Z,6.80
2023-04-15T02:10:13.177Z,6.80
2023-04-15T02:12:44.973Z,6.80
2023-04-15T02:15:11.907Z,6.80
2023-04-15T02:17:41.183Z,6.80
2023-04-15T02:20:11.529Z,6.80
2023-04-15T02:22:40.619Z,6.70
2023-04-15T02:25:08.283Z,6.70
2023-04-15T02:27:36.200Z,6.70
2023-04-15T02:30:03.270Z,6.70
2023-04-15T02:32:32.403Z,6.60
2023-04-15T02:35:06.550Z,6.60
2023-04-15T02:37:40.668Z,6.50
2023-04-15T02:40:13.680Z,6.50
2023-04-15T02:42:44.347Z,6.50
2023-04-15T02:45:13.784Z,6.50
2023-04-15T02:47:41.874Z,6.50
2023-04-15T02:50:09.944Z,6.50
2023-04-15T02:52:36.843Z,6.50
2023-04-15T02:55:11.156Z,6.50
2023-04-15T02:57:42.834Z,6.50
2023-04-15T03:00:12.936Z,6.40
2023-04-15T03:02:43.150Z,6.40
2023-04-15T03:05:13.976Z,6.40
2023-04-15T03:07:46.971Z,6.30
2023-04-15T03:10:14.022Z,6.30
2023-04-15T03:12:43.116Z,6.20
2023-04-15T03:15:14.770Z,6.20
2023-04-15T03:17:45.595Z,6.30
2023-04-15T03:20:13.098Z,6.30
2023-04-15T03:22:40.065Z,6.30
2023-04-15T03:25:07.705Z,6.30
2023-04-15T03:27:37.839Z,6.30
2023-04-15T03:30:09.024Z,6.20
2023-04-15T03:32:38.041Z,6.20
2023-04-15T03:35:14.008Z,6.30
2023-04-15T03:37:41.374Z,6.30
2023-04-15T03:40:09.817Z,6.20
2023-04-15T03:42:36.729Z,6.20
2023-04-15T03:45:06.042Z,6.20
2023-04-15T03:47:37.895Z,6.20
2023-04-15T03:50:05.306Z,6.20
2023-04-15T03:52:37.216Z,6.20
2023-04-15T03:55:10.189Z,6.20
2023-04-15T03:57:39.147Z,6.20
2023-04-15T04:00:06.923Z,6.20
2023-04-15T04:02:39.147Z,6.20
2023-04-15T04:05:06.391Z,6.30
2023-04-15T04:07:36.064Z,6.20
2023-04-15T04:10:03.809Z,6.20
2023-04-15T04:12:30.768Z,6.20
2023-04-15T04:14:57.764Z,6.20
2023-04-15T04:17:27.063Z,6.20
2023-04-15T04:19:54.025Z,6.20
2023-04-15T04:22:26.551Z,6.20
2023-04-15T04:24:55.789Z,6.10
2023-04-15T04:27:27.460Z,6.10
2023-04-15T04:29:54.420Z,6.10
2023-04-15T04:32:23.675Z,6.10
2023-04-15T04:34:50.653Z,6.10
2023-04-15T04:37:23.342Z,6.10
2023-04-15T04:39:50.294Z,6.10
2023-04-15T04:42:17.206Z,6.00
2023-04-15T04:44:44.112Z,6.00
2023-04-15T04:47:13.218Z,6.10
2023-04-15T04:49:42.596Z,6.10
2023-04-15T04:52:14.104Z,6.10
2023-04-15T04:54:41.089Z,6.20
2023-04-15T04:57:10.283Z,6.10
2023-04-15T04:59:37.184Z,6.20
2023-04-15T05:02:04.205Z,6.20
2023-04-15T05:04:32.046Z,6.20
2023-04-15T05:07:01.232Z,6.20
2023-04-15T05:09:32.526Z,6.20
2023-04-15T05:12:01.469Z,6.20
2023-04-15T05:14:31.067Z,6.30
2023-04-15T05:17:00.195Z,6.30
2023-04-15T05:19:29.308Z,6.30
2023-04-15T05:21:56.293Z,6.20
2023-04-15T05:24:23.363Z,6.30
2023-04-15T05:26:50.473Z,6.30
2023-04-15T05:29:17.610Z,6.30
2023-04-15T05:31:44.544Z,6.30
2023-04-15T05:34:12.339Z,6.30
2023-04-15T05:36:39.411Z,6.30
2023-04-15T05:39:07.171Z,6.40
2023-04-15T05:41:34.624Z,6.40
2023-04-15T05:44:03.793Z,6.40
2023-04-15T05:46:33.797Z,6.40
2023-04-15T05:49:01.041Z,6.30
2023-04-15T05:51:30.632Z,6.40
2023-04-15T05:53:59.752Z,6.40
2023-04-15T05:56:27.182Z,6.50
2023-04-15T05:58:54.068Z,6.50
2023-04-15T06:01:21.275Z,6.50
2023-04-15T06:03:48.970Z,6.60
2023-04-15T06:06:16.038Z,6.60
2023-04-15T06:08:42.936Z,6.60
2023-04-15T06:11:11.995Z,6.60
2023-04-15T06:13:41.487Z,6.60
2023-04-15T06:16:08.583Z,6.70
2023-04-15T06:18:35.486Z,6.70
2023-04-15T06:21:04.837Z,6.70
2023-04-15T06:23:34.081Z,6.70
2023-04-15T06:26:01.159Z,6.60
2023-04-15T06:28:30.596Z,6.70
2023-04-15T06:30:59.725Z,6.70
2023-04-15T06:33:28.732Z,6.70
2023-04-15T06:35:55.646Z,6.80
2023-04-15T06:38:22.625Z,6.80
2023-04-15T06:40:54.196Z,6.80
2023-04-15T06:43:21.133Z,6.80
2023-04-15T06:45:48.098Z,6.90
2023-04-15T06:48:15.479Z,6.90
2023-04-15T06:50:42.385Z,6.90
2023-04-15T06:53:09.254Z,6.90
2023-04-15T06:55:38.436Z,6.90
2023-04-15T06:58:07.931Z,7.00
2023-04-15T07:00:34.831Z,7.00
2023-04-15T07:03:06.383Z,7.00
2023-04-15T07:05:33.586Z,7.00
2023-04-15T07:08:05.190Z,7.00
2023-04-15T07:10:32.742Z,7.00
2023-04-15T07:13:02.208Z,7.00
2023-04-15T07:15:29.308Z,7.00
2023-04-15T07:17:58.750Z,7.00
2023-04-15T07:20:26.044Z,7.00
2023-04-15T07:22:57.764Z,7.00
2023-04-15T07:25:24.701Z,7.00
2023-04-15T07:27:55.010Z,7.00
2023-04-15T07:30:21.996Z,7.00
2023-04-15T07:32:49.024Z,7.00
2023-04-15T07:35:15.968Z,7.00
2023-04-15T07:37:43.526Z,7.00
2023-04-15T07:40:10.925Z,7.00
2023-04-15T07:42:40.706Z,7.00
2023-04-15T07:45:09.428Z,7.00
2023-04-15T07:47:36.582Z,7.00
2023-04-15T07:50:06.897Z,7.00
2023-04-15T07:52:39.148Z,7.00
2023-04-15T07:55:08.490Z,7.10
2023-04-15T07:57:38.564Z,7.00
2023-04-15T08:00:07.720Z,7.00
2023-04-15T08:02:42.925Z,7.10
2023-04-15T08:05:10.736Z,7.20
2023-04-15T08:07:38.457Z,7.20
2023-04-15T08:10:05.988Z,7.20
2023-04-15T08:12:32.937Z,7.20
2023-04-15T08:15:02.961Z,7.30
2023-04-15T08:17:29.917Z,7.40
2023-04-15T08:19:59.153Z,7.40
2023-04-15T08:22:26.356Z,7.50
2023-04-15T08:24:53.407Z,7.60
2023-04-15T08:27:20.346Z,7.80
2023-04-15T08:29:49.526Z,7.80
2023-04-15T08:32:17.014Z,7.80
2023-04-15T08:34:46.515Z,7.90
2023-04-15T08:37:13.569Z,8.00
2023-04-15T08:39:44.201Z,8.00
2023-04-15T08:42:19.990Z,8.00
2023-04-15T08:44:46.924Z,8.00
2023-04-15T08:47:14.905Z,8.10
2023-04-15T08:49:44.083Z,8.20
2023-04-15T08:52:13.581Z,8.30
2023-04-15T08:54:43.139Z,8.40
2023-04-15T08:57:10.037Z,8.40
2023-04-15T08:59:39.699Z,8.50
2023-04-15T09:02:06.738Z,8.60
2023-04-15T09:04:33.846Z,8.60
2023-04-15T09:07:00.769Z,8.60
2023-04-15T09:09:30.205Z,8.60
2023-04-15T09:11:57.147Z,8.60
2023-04-15T09:14:24.120Z,8.60
2023-04-15T09:17:02.487Z,8.60
2023-04-15T09:19:29.665Z,8.60
2023-04-15T09:21:58.985Z,8.60
2023-04-15T09:24:27.210Z,8.60
2023-04-15T09:26:55.441Z,8.60
2023-04-15T09:29:24.515Z,8.60
2023-04-15T09:31:53.541Z,8.60
2023-04-15T09:34:23.761Z,8.70
2023-04-15T09:36:56.953Z,8.90
2023-04-15T09:39:23.888Z,9.00
2023-04-15T09:42:07.194Z,9.00
2023-04-15T09:44:36.746Z,9.20
2023-04-15T09:47:08.411Z,9.30
2023-04-15T09:49:37.553Z,9.40
2023-04-15T09:52:06.060Z,9.60
2023-04-15T09:54:35.091Z,9.70
2023-04-15T09:57:06.450Z,9.80
2023-04-15T09:59:33.476Z,10.00
2023-04-15T10:02:02.522Z,10.00
2023-04-15T10:04:29.819Z,10.10
2023-04-15T10:06:59.297Z,10.10
2023-04-15T10:09:29.150Z,10.30
2023-04-15T10:11:56.181Z,10.30
2023-04-15T10:14:23.526Z,10.20
2023-04-15T10:16:50.445Z,10.10
2023-04-15T10:19:20.809Z,10.00
2023-04-15T10:21:50.350Z,10.00
2023-04-15T10:24:21.927Z,10.00
2023-04-15T10:26:48.819Z,10.00
2023-04-15T10:29:15.777Z,10.20
2023-04-15T10:31:47.770Z,10.30
2023-04-15T10:34:16.084Z,10.40
2023-04-15T10:36:47.108Z,10.40
2023-04-15T10:39:43.062Z,10.40
2023-04-15T10:42:16.651Z,10.40
2023-04-15T10:44:52.956Z,10.40
2023-04-15T10:47:21.627Z,10.30
2023-04-15T10:49:51.764Z,10.30
2023-04-15T10:52:26.199Z,10.30
2023-04-15T10:55:10.676Z,10.30
2023-04-15T10:57:43.654Z,10.30
2023-04-15T11:00:16.822Z,10.40
2023-04-15T11:02:47.325Z,10.50
2023-04-15T11:05:15.572Z,10.60
2023-04-15T11:07:44.824Z,10.80
2023-04-15T11:10:14.493Z,10.80
2023-04-15T11:12:44.127Z,10.90
2023-04-15T11:15:28.927Z,11.00
2023-04-15T11:17:58.867Z,11.10
2023-04-15T11:20:26.065Z,11.30
2023-04-15T11:23:14.089Z,11.50
2023-04-15T11:25:43.277Z,11.50
2023-04-15T11:28:10.973Z,11.50
2023-04-15T11:30:43.657Z,11.50
2023-04-15T11:33:12.469Z,11.50
2023-04-15T11:35:42.242Z,11.50
2023-04-15T11:38:10.960Z,11.60
2023-04-15T11:40:38.024Z,11.80
2023-04-15T11:43:09.476Z,11.90
2023-04-15T11:45:37.221Z,12.00
2023-04-15T11:48:11.172Z,12.00
2023-04-15T11:50:40.695Z,12.00
2023-04-15T11:53:11.174Z,12.20
2023-04-15T11:55:47.317Z,12.30
2023-04-15T11:58:19.317Z,12.20
2023-04-15T12:00:57.140Z,12.20
2023-04-15T12:03:27.490Z,12.20
2023-04-15T12:06:20.604Z,12.50
2023-04-15T12:09:10.183Z,12.50
2023-04-15T12:11:43.966Z,12.70
2023-04-15T12:14:13.706Z,12.50
2023-04-15T12:16:51.638Z,12.10
2023-04-15T12:19:26.719Z,12.00
2023-04-15T12:21:59.607Z,11.90
2023-04-15T12:24:27.269Z,11.90
2023-04-15T12:26:57.327Z,12.00
2023-04-15T12:29:28.470Z,12.20
2023-04-15T12:31:57.075Z,12.50
2023-04-15T12:34:35.788Z,12.50
2023-04-15T12:37:09.531Z,12.70
2023-04-15T12:39:38.399Z,12.70
2023-04-15T12:42:09.057Z,12.50
2023-04-15T12:44:38.586Z,12.50
2023-04-15T12:47:05.736Z,12.50
2023-04-15T12:49:37.793Z,12.70
2023-04-15T12:52:07.215Z,13.00
2023-04-15T12:54:39.228Z,13.20
2023-04-15T12:57:07.396Z,13.30
2023-04-15T12:59:37.651Z,13.30
2023-04-15T13:02:04.754Z,13.10
2023-04-15T13:04:32.026Z,13.10
2023-04-15T13:06:59.272Z,13.10
2023-04-15T13:09:28.546Z,13.30
2023-04-15T13:11:56.377Z,13.30
2023-04-15T13:14:23.291Z,13.30
2023-04-15T13:16:50.564Z,13.30
2023-04-15T13:19:17.550Z,13.30
2023-04-15T13:21:46.706Z,13.10
2023-04-15T13:24:13.620Z,13.10
2023-04-15T13:26:40.569Z,13.00
2023-04-15T13:29:09.900Z,13.00
2023-04-15T13:31:36.851Z,13.00
2023-04-15T13:34:06.385Z,13.20
2023-04-15T13:36:33.537Z,13.40
2023-04-15T13:39:03.450Z,13.60
2023-04-15T13:41:30.681Z,13.80
2023-04-15T13:44:02.881Z,13.90
2023-04-15T13:46:32.142Z,13.90
2023-04-15T13:48:59.050Z,13.90
2023-04-15T13:51:28.189Z,13.70
2023-04-15T13:53:58.199Z,13.60
2023-04-15T13:56:25.156Z,13.50
2023-04-15T13:58:58.844Z,13.50
2023-04-15T14:01:26.057Z,13.50
2023-04-15T14:03:55.319Z,13.50
2023-04-15T14:06:22.349Z,13.50
2023-04-15T14:08:51.862Z,13.50
2023-04-15T14:11:18.759Z,13.60
2023-04-15T14:13:50.646Z,13.70
2023-04-15T14:16:19.714Z,13.90
2023-04-15T14:18:49.080Z,13.90
2023-04-15T14:21:16.152Z,13.90
2023-04-15T14:23:45.436Z,13.90
2023-04-15T14:26:13.731Z,14.00
2023-04-15T14:28:40.810Z,14.10
2023-04-15T14:31:07.743Z,14.30
2023-04-15T14:33:34.752Z,14.40
2023-04-15T14:36:04.130Z,14.60
2023-04-15T14:38:31.578Z,14.70
2023-04-15T14:41:01.173Z,14.60
2023-04-15T14:43:33.236Z,14.50
2023-04-15T14:46:00.224Z,14.40
2023-04-15T14:48:29.331Z,14.30
2023-04-15T14:50:56.295Z,14.20
2023-04-15T14:53:23.234Z,14.20
2023-04-15T14:55:50.164Z,14.10
2023-04-15T14:58:17.157Z,14.10
2023-04-15T15:00:44.582Z,14.00
2023-04-15T15:03:14.850Z,13.90
2023-04-15T15:05:42.897Z,13.90
2023-04-15T15:08:12.182Z,13.80
2023-04-15T15:10:48.398Z,13.70
2023-04-15T15:13:19.118Z,13.60
2023-04-15T15:15:46.166Z,13.50
2023-04-15T15:18:15.277Z,13.30
2023-04-15T15:20:42.533Z,13.30
2023-04-15T15:23:12.228Z,13.30
2023-04-15T15:25:39.239Z,13.20
2023-04-15T15:28:08.694Z,13.30
2023-04-15T15:30:35.632Z,13.30
2023-04-15T15:33:05.055Z,13.40
2023-04-15T15:35:36.390Z,13.30
2023-04-15T15:38:03.400Z,13.30
2023-04-15T15:40:30.456Z,13.30
2023-04-15T15:42:57.338Z,13.30
2023-04-15T15:45:24.352Z,13.40
2023-04-15T15:47:53.443Z,13.40
2023-04-15T15:50:20.929Z,13.30
2023-04-15T15:52:47.811Z,13.10
2023-04-15T15:55:14.723Z,13.10
2023-04-15T15:57:41.657Z,12.90
2023-04-15T16:00:13.753Z,12.80
2023-04-15T16:05:12.781Z,13.10
2023-04-15T16:07:39.688Z,13.10
2023-04-15T16:10:07.350Z,13.10
2023-04-15T16:12:36.542Z,13.10
2023-04-15T16:15:06.134Z,13.10
2023-04-15T16:17:33.083Z,13.00
2023-04-15T16:20:00.969Z,12.90
2023-04-15T16:22:30.640Z,12.80
2023-04-15T16:25:00.546Z,12.80
2023-04-15T16:27:30.030Z,12.80
2023-04-15T16:29:59.220Z,12.90
2023-04-15T16:32:28.477Z,12.80
2023-04-15T16:34:57.790Z,12.80
2023-04-15T16:37:24.737Z,12.70
2023-04-15T16:39:51.680Z,12.60
2023-04-15T16:42:20.973Z,12.50
2023-04-15T16:44:50.190Z,12.50
2023-04-15T16:47:19.633Z,12.40
2023-04-15T16:49:46.556Z,12.50
2023-04-15T16:52:13.527Z,12.40
2023-04-15T16:54:43.443Z,12.40
2023-04-15T16:57:10.493Z,12.40
2023-04-15T16:59:38.098Z,12.40
2023-04-15T17:02:05.136Z,12.40
2023-04-15T17:04:34.984Z,12.50
2023-04-15T17:07:02.014Z,12.50
2023-04-15T17:09:33.612Z,12.50
2023-04-15T17:12:04.061Z,12.60
2023-04-15T17:14:32.158Z,12.60
2023-04-15T17:16:59.274Z,12.70
2023-04-15T17:19:27.527Z,12.50
2023-04-15T17:21:59.102Z,12.50
2023-04-15T17:24:28.853Z,12.50
2023-04-15T17:26:56.817Z,12.50
2023-04-15T17:29:24.131Z,12.20
2023-04-15T17:31:51.169Z,12.00
2023-04-15T17:34:18.175Z,11.90
2023-04-15T17:36:47.531Z,11.80
2023-04-15T17:39:17.193Z,11.70
2023-04-15T17:41:44.187Z,11.70
2023-04-15T17:44:13.723Z,11.70
2023-04-15T17:46:40.710Z,11.60
2023-04-15T17:49:09.859Z,11.50
2023-04-15T17:51:39.299Z,11.40
2023-04-15T17:54:08.809Z,11.30
2023-04-15T17:56:35.747Z,11.40
2023-04-15T17:59:02.703Z,11.30
2023-04-15T18:01:32.224Z,11.30
2023-04-15T18:04:01.468Z,11.30
2023-04-15T18:06:28.550Z,11.30
2023-04-15T18:08:56.131Z,11.30
2023-04-15T18:11:23.065Z,11.30
2023-04-15T18:13:49.971Z,11.20
2023-04-15T18:16:19.364Z,11.20
2023-04-15T18:18:46.387Z,11.10
2023-04-15T18:21:15.656Z,11.10
2023-04-15T18:23:42.590Z,11.10
2023-04-15T18:26:14.274Z,11.10
2023-04-15T18:28:44.192Z,11.10
2023-04-15T18:31:13.682Z,11.10
2023-04-15T18:33:43.014Z,11.10
2023-04-15T20:56:11.959Z,7.10
2023-04-15T20:58:39.370Z,8.10
2023-04-15T21:01:06.469Z,8.20
2023-04-15T21:03:35.676Z,8.40
2023-04-15T21:06:02.736Z,8.50
2023-04-15T21:08:30.431Z,8.60
2023-04-15T21:10:57.814Z,8.60
2023-04-15T21:13:24.840Z,8.70
2023-04-15T21:15:54.169Z,8.80
2023-04-15T21:18:24.210Z,8.80
2023-04-15T21:21:01.887Z,8.80
2023-04-15T21:23:29.872Z,8.90
2023-04-15T21:25:57.332Z,8.90
2023-04-15T21:28:24.228Z,8.90
2023-04-15T21:30:53.562Z,8.80
2023-04-15T21:33:22.905Z,8.80
2023-04-15T21:35:50.148Z,8.80
2023-04-15T21:38:20.799Z,8.80
2023-04-15T21:40:49.996Z,8.70
2023-04-15T21:43:22.990Z,8.60
2023-04-15T21:46:21.213Z,8.60
2023-04-15T21:48:39.405Z,8.60
2023-04-15T21:51:11.572Z,8.40
2023-04-15T21:53:38.840Z,8.30
2023-04-15T21:56:08.122Z,8.20
2023-04-15T21:58:37.371Z,8.10
2023-04-15T22:01:07.339Z,8.00
2023-04-15T22:03:34.955Z,7.90
2023-04-15T22:06:04.590Z,7.80
2023-04-15T22:08:44.851Z,7.70
2023-04-15T22:11:26.705Z,7.60
2023-04-15T22:13:54.580Z,7.50
2023-04-15T22:16:23.671Z,7.40
2023-04-15T22:18:53.581Z,7.30
2023-04-15T22:21:20.718Z,7.20
2023-04-15T22:23:50.738Z,7.10
2023-04-15T22:26:19.962Z,7.00
2023-04-15T22:28:48.158Z,7.00
2023-04-15T22:31:15.237Z,7.00
2023-04-15T22:33:44.374Z,6.90
2023-04-15T22:36:16.353Z,6.80
2023-04-15T22:38:45.767Z,6.70
2023-04-15T22:41:14.998Z,6.70
2023-04-15T22:43:46.300Z,6.60
2023-04-15T22:46:16.569Z,6.60
2023-04-15T22:48:46.002Z,6.60
2023-04-15T22:51:12.892Z,6.60
2023-04-15T22:53:42.041Z,6.60
2023-04-15T22:56:14.018Z,6.50
2023-04-15T22:58:46.312Z,6.50
2023-04-15T23:01:17.344Z,6.40
2023-04-15T23:03:56.710Z,6.30
2023-04-15T23:06:28.212Z,6.30
2023-04-15T23:08:55.207Z,6.30
2023-04-15T23:11:24.322Z,6.20
2023-04-15T23:13:51.282Z,6.20
2023-04-15T23:16:21.750Z,6.10
2023-04-15T23:18:48.746Z,6.10
2023-04-15T23:21:15.740Z,6.00
2023-04-15T23:23:45.792Z,6.00
2023-04-15T23:26:12.697Z,5.90
2023-04-15T23:28:39.633Z,5.90
2023-04-15T23:31:08.934Z,5.80
2023-04-15T23:33:38.128Z,5.80
2023-04-15T23:36:06.060Z,5.80
2023-04-15T23:38:32.989Z,5.80
2023-04-15T23:40:59.901Z,5.80
2023-04-15T23:43:26.845Z,5.80
2023-04-15T23:45:53.775Z,5.80
2023-04-15T23:48:23.704Z,5.70
2023-04-15T23:50:52.820Z,5.60
2023-04-15T23:53:19.957Z,5.60
2023-04-15T23:55:47.076Z,5.60
2023-04-15T23:58:16.535Z,5.60
